Time;durP1;ratioP1;P1;durP2;ratioP2;P2;SDS_P1;SDS_P2;PMS_P1;PMS_P2;Temp;Humidity;BMP_temperature;BMP_pressure;BME280_temperature;BME280_humidity;BME280_pressure;Samples;Min_cycle;Max_cycle;Signal;HPM_P1;HPM_P2
2022/09/06 00:01:51;;;;;;;;;;;;;;;;;;6236781;22;20243;-85
2022/09/06 00:04:17;;;;;;;;;;;;;;;;;;6239809;22;19980;-85
2022/09/06 00:06:43;;;;;;;;;;;;;;;;;;6238115;22;19926;-85
2022/09/06 00:09:09;;;;;;;;;;;;;;;;;;6242584;22;19919;-86
2022/09/06 00:11:35;;;;;;;;;;;;;;;;;;6262549;22;19995;-85
2022/09/06 00:14:01;;;;;;;;;;;;;;;;;;6240239;22;19918;-86
2022/09/06 00:16:27;;;;;;;;;;;;;;;;;;6237474;22;20010;-85
2022/09/06 00:18:53;;;;;;;;;;;;;;;;;;6236847;22;19956;-85
2022/09/06 00:21:19;;;;;;;;;;;;;;;;;;6238975;22;19986;-86
2022/09/06 00:23:45;;;;;;;;;;;;;;;;;;6264294;22;19943;-86
2022/09/06 00:26:11;;;;;;;;;;;;;;;;;;6265315;22;19927;-86
2022/09/06 00:28:38;;;;;;;;;;;;;;;;;;6263766;22;19925;-85
2022/09/06 00:31:04;;;;;;;;;;;;;;;;;;6240466;22;19923;-85
2022/09/06 00:33:30;;;;;;;;;;;;;;;;;;6231716;22;19918;-85
2022/09/06 00:35:56;;;;;;;;;;;;;;;;;;6233798;22;20003;-86
2022/09/06 00:38:22;;;;;;;;;;;;;;;;;;6238005;22;19918;-85
2022/09/06 00:40:48;;;;;;;;;;;;;;;;;;6236646;22;19915;-85
2022/09/06 00:43:14;;;;;;;;;;;;;;;;;;6237224;22;19918;-85
2022/09/06 00:45:43;;;;;;;;;;;;;;;;;;6233168;22;20335;-85
2022/09/06 00:48:09;;;;;;;;;;;;;;;;;;6233425;22;20329;-85
2022/09/06 00:50:35;;;;;;;;;;;;;;;;;;6235010;22;19919;-86
2022/09/06 00:53:01;;;;;;;;;;;;;;;;;;6263683;22;19986;-86
2022/09/06 00:55:30;;;;;;;;;;;;;;;;;;6235478;22;19971;-86
2022/09/06 00:57:56;;;;;;;;;;;;;;;;;;6234288;22;19925;-86
2022/09/06 01:00:22;;;;;;;;;;;;;;;;;;6264327;22;19926;-86
2022/09/06 01:02:48;;;;;;;;;;;;;;;;;;6235529;22;19918;-85
2022/09/06 01:05:14;;;;;;;;;;;;;;;;;;6238596;22;19915;-85
2022/09/06 01:07:40;;;;;;;;;;;;;;;;;;6234321;22;19919;-85
2022/09/06 01:10:08;;;;;;;;;;;;;;;;;;6236836;22;20057;-85
2022/09/06 01:12:34;;;;;;;;;;;;;;;;;;6234151;22;20319;-85
2022/09/06 01:15:00;;;;;;;;;;;;;;;;;;6237672;22;20089;-85
2022/09/06 01:17:26;;;;;;;;;;;;;;;;;;6231823;22;20324;-85
2022/09/06 01:19:55;;;;;;;;;;;;;;;;;;6237184;22;19922;-85
2022/09/06 01:22:21;;;;;;;;;;;;;;;;;;6236471;22;19938;-85
2022/09/06 01:24:47;;;;;;;;;;;;;;;;;;6235964;22;19918;-85
2022/09/06 01:27:13;;;;;;;;;;;;;;;;;;6233946;22;19919;-85
2022/09/06 01:29:41;;;;;;;;;;;;;;;;;;6260345;22;19918;-85
2022/09/06 01:32:07;;;;;;;;;;;;;;;;;;6263287;22;19919;-85
2022/09/06 01:34:33;;;;;;;;;;;;;;;;;;6234668;22;20247;-86
2022/09/06 01:36:59;;;;;;;;;;;;;;;;;;6232981;22;20213;-86
2022/09/06 01:39:25;;;;;;;;;;;;;;;;;;6262168;22;20361;-86
2022/09/06 01:41:51;;;;;;;;;;;;;;;;;;6236367;22;19919;-85
2022/09/06 01:44:17;;;;;;;;;;;;;;;;;;6262565;22;20036;-86
2022/09/06 01:46:43;;;;;;;;;;;;;;;;;;6236001;22;19919;-86
2022/09/06 01:49:09;;;;;;;;;;;;;;;;;;6237496;22;20021;-85
2022/09/06 01:51:35;;;;;;;;;;;;;;;;;;6235022;22;19919;-85
2022/09/06 01:54:01;;;;;;;;;;;;;;;;;;6236147;22;19919;-86
2022/09/06 01:56:39;;;;;;;;;;;;;;;;;;6238465;22;20007;-85
2022/09/06 01:59:07;;;;;;;;;;;;;;;;;;6263287;22;19930;-86
2022/09/06 02:01:33;;;;;;;;;;;;;;;;;;6236736;22;20247;-86
2022/09/06 02:03:59;;;;;;;;;;;;;;;;;;6240196;22;19923;-86
2022/09/06 02:06:25;;;;;;;;;;;;;;;;;;6239586;22;19925;-85
2022/09/06 02:08:54;;;;;;;;;;;;;;;;;;6240904;22;19915;-85
2022/09/06 02:11:20;;;;;;;;;;;;;;;;;;6265802;22;20336;-85
2022/09/06 02:13:46;;;;;;;;;;;;;;;;;;6239104;22;20106;-86
2022/09/06 02:16:12;;;;;;;;;;;;;;;;;;6244080;22;20204;-86
2022/09/06 02:18:38;;;;;;;;;;;;;;;;;;6239388;22;19922;-86
2022/09/06 02:21:04;;;;;;;;;;;;;;;;;;6239702;22;20449;-86
2022/09/06 02:23:30;;;;;;;;;;;;;;;;;;6239642;22;19954;-86
2022/09/06 02:25:59;;;;;;;;;;;;;;;;;;6265614;22;19930;-85
2022/09/06 02:28:25;;;;;;;;;;;;;;;;;;6237806;22;19919;-86
2022/09/06 02:30:51;;;;;;;;;;;;;;;;;;6238504;22;20465;-85
2022/09/06 02:33:17;;;;;;;;;;;;;;;;;;6262640;22;19954;-86
2022/09/06 02:35:43;;;;;;;;;;;;;;;;;;6236104;22;19922;-86
2022/09/06 02:38:11;;;;;;;;;;;;;;;;;;6241868;22;19926;-85
2022/09/06 02:40:37;;;;;;;;;;;;;;;;;;6237334;22;19919;-85
2022/09/06 02:43:03;;;;;;;;;;;;;;;;;;6264851;22;19925;-85
2022/09/06 02:45:29;;;;;;;;;;;;;;;;;;6261589;22;19993;-86
2022/09/06 02:47:55;;;;;;;;;;;;;;;;;;6239112;22;19919;-85
2022/09/06 02:50:21;;;;;;;;;;;;;;;;;;6239850;22;19925;-85
2022/09/06 02:52:47;;;;;;;;;;;;;;;;;;6237139;22;19918;-86
2022/09/06 02:55:14;;;;;;;;;;;;;;;;;;6263604;22;19923;-86
2022/09/06 02:57:43;;;;;;;;;;;;;;;;;;6237086;22;19949;-86
2022/09/06 03:00:09;;;;;;;;;;;;;;;;;;6239309;22;19922;-86
2022/09/06 03:02:35;;;;;;;;;;;;;;;;;;6236403;22;19919;-86
2022/09/06 03:05:01;;;;;;;;;;;;;;;;;;6239649;22;20154;-86
2022/09/06 03:07:27;;;;;;;;;;;;;;;;;;6236219;22;19926;-85
2022/09/06 03:09:55;;;;;;;;;;;;;;;;;;6239706;22;19918;-85
2022/09/06 03:12:21;;;;;;;;;;;;;;;;;;6266111;22;19918;-86
2022/09/06 03:14:50;;;;;;;;;;;;;;;;;;6237769;22;20342;-86
2022/09/06 03:17:17;;;;;;;;;;;;;;;;;;6239228;22;19926;-86
2022/09/06 03:19:45;;;;;;;;;;;;;;;;;;6262076;22;19964;-85
2022/09/06 03:22:11;;;;;;;;;;;;;;;;;;6239947;22;19929;-85
2022/09/06 03:24:37;;;;;;;;;;;;;;;;;;6235775;22;19919;-85
2022/09/06 03:27:03;;;;;;;;;;;;;;;;;;6237124;22;19925;-85
2022/09/06 03:29:29;;;;;;;;;;;;;;;;;;6236172;22;19919;-85
2022/09/06 03:31:55;;;;;;;;;;;;;;;;;;6238455;22;19953;-85
2022/09/06 03:34:21;;;;;;;;;;;;;;;;;;6264428;22;20282;-78
2022/09/06 03:36:48;;;;;;;;;;;;;;;;;;6262077;22;19927;-79
2022/09/06 03:39:17;;;;;;;;;;;;;;;;;;6293738;22;19919;-79
2022/09/06 03:41:43;;;;;;;;;;;;;;;;;;6290176;22;19919;-79
2022/09/06 03:44:09;;;;;;;;;;;;;;;;;;6292328;22;19923;-79
2022/09/06 03:46:36;;;;;;;;;;;;;;;;;;6287830;22;19946;-79
2022/09/06 03:49:02;;;;;;;;;;;;;;;;;;6291535;22;19914;-79
2022/09/06 03:51:28;;;;;;;;;;;;;;;;;;6262152;22;19965;-78
2022/09/06 03:53:54;;;;;;;;;;;;;;;;;;6264158;22;20018;-79
2022/09/06 03:56:20;;;;;;;;;;;;;;;;;;6261671;22;19930;-79
2022/09/06 03:58:46;;;;;;;;;;;;;;;;;;6289595;22;19946;-79
2022/09/06 04:01:12;;;;;;;;;;;;;;;;;;6288986;22;19971;-79
2022/09/06 04:03:38;;;;;;;;;;;;;;;;;;6259757;22;19918;-79
2022/09/06 04:06:04;;;;;;;;;;;;;;;;;;6264386;22;19961;-79
2022/09/06 04:08:33;;;;;;;;;;;;;;;;;;6288370;22;20446;-79
2022/09/06 04:10:59;;;;;;;;;;;;;;;;;;6265071;22;19954;-78
2022/09/06 04:13:28;;;;;;;;;;;;;;;;;;6261756;22;20084;-78
2022/09/06 04:15:54;;;;;;;;;;;;;;;;;;6238382;22;19923;-78
2022/09/06 04:18:20;;;;;;;;;;;;;;;;;;6290102;22;19968;-78
2022/09/06 04:20:49;;;;;;;;;;;;;;;;;;6288266;22;20322;-78
2022/09/06 04:23:15;;;;;;;;;;;;;;;;;;6262813;22;19923;-78
2022/09/06 04:25:41;;;;;;;;;;;;;;;;;;6260660;22;19941;-78
2022/09/06 04:28:07;;;;;;;;;;;;;;;;;;6262216;22;20390;-79
2022/09/06 04:30:33;;;;;;;;;;;;;;;;;;6232093;22;20579;-79
2022/09/06 04:32:59;;;;;;;;;;;;;;;;;;6235216;22;20032;-79
2022/09/06 04:35:25;;;;;;;;;;;;;;;;;;6238584;22;20329;-79
2022/09/06 04:37:51;;;;;;;;;;;;;;;;;;6238302;22;20524;-79
2022/09/06 04:40:17;;;;;;;;;;;;;;;;;;6236749;22;19919;-79
2022/09/06 04:42:44;;;;;;;;;;;;;;;;;;6292826;22;19953;-79
2022/09/06 04:45:10;;;;;;;;;;;;;;;;;;6239875;22;19919;-79
2022/09/06 04:47:36;;;;;;;;;;;;;;;;;;6238022;22;19919;-79
2022/09/06 04:50:03;;;;;;;;;;;;;;;;;;6239090;22;19919;-80
2022/09/06 04:52:29;;;;;;;;;;;;;;;;;;6262389;22;19929;-78
2022/09/06 04:54:55;;;;;;;;;;;;;;;;;;6266853;22;19923;-78
2022/09/06 04:57:22;;;;;;;;;;;;;;;;;;6237326;22;19926;-80
2022/09/06 04:59:48;;;;;;;;;;;;;;;;;;6261257;22;19919;-78
2022/09/06 05:02:14;;;;;;;;;;;;;;;;;;6238042;22;19926;-78
2022/09/06 05:04:47;;;;;;;;;;;;;;;;;;6235930;22;19948;-79
2022/09/06 05:07:14;;;;;;;;;;;;;;;;;;6263124;22;20244;-78
2022/09/06 05:09:40;;;;;;;;;;;;;;;;;;6287409;22;19934;-85
2022/09/06 05:12:07;;;;;;;;;;;;;;;;;;6239264;22;19992;-85
2022/09/06 05:18:05;;;;;;;;;;;;;;;;;;6288531;22;19930;-86
2022/09/06 05:20:37;;;;;;;;;;;;;;;;;;6238638;22;19918;-85
2022/09/06 05:23:18;;;;;;;;;;;;;;;;;;6239192;22;20599;-85
2022/09/06 05:25:49;;;;;;;;;;;;;;;;;;6232893;22;19919;-87
2022/09/06 05:28:20;;;;;;;;;;;;;;;;;;6218291;22;19919;-86
2022/09/06 05:31:08;;;;;;;;;;;;;;;;;;;;;
2022/09/06 05:33:56;;;;;;;;;;;;;;;;;;6276137;22;19919;-86
2022/09/06 05:36:34;;;;;;;;;;;;;;;;;;6212657;23;19939;-86
2022/09/06 05:39:23;;;;;;;;;;;;;;;;;;6264233;22;19997;-86
2022/09/06 05:44:51;;;;;;;;;;;;;;;;;;6234226;22;19915;-85
2022/09/06 05:50:32;;;;;;;;;;;;;;;;;;;;;
2022/09/06 06:21:10;;;;;;;;;;;;;;;;;;6225645;22;19920;-87
2022/09/06 06:23:38;;;;;;;;;;;;;;;;;;6241610;22;19923;-87
2022/09/06 06:26:05;;;;;;;;;;;;;;;;;;6269125;22;20206;-87
2022/09/06 06:28:34;;;;;;;;;;;;;;;;;;6267365;22;19920;-88
2022/09/06 06:31:09;;;;;;;;;;;;;;;;;;6268003;22;19965;-88
2022/09/06 06:33:38;;;;;;;;;;;;;;;;;;6262619;22;20275;-88
2022/09/06 06:36:03;;;;;;;;;;;;;;;;;;6268465;22;20641;-88
2022/09/06 06:38:29;;;;;;;;;;;;;;;;;;6240452;22;19922;-88
2022/09/06 06:40:59;;;;;;;;;;;;;;;;;;6243046;22;19919;-88
2022/09/06 06:43:39;;;;;;;;;;;;;;;;;;6242426;22;20347;-88
2022/09/06 06:46:05;;;;;;;;;;;;;;;;;;6267425;22;19974;-87
2022/09/06 06:48:33;;;;;;;;;;;;;;;;;;6236746;22;20633;-88
2022/09/06 06:50:59;;;;;;;;;;;;;;;;;;6241351;22;19915;-88
2022/09/06 06:53:25;;;;;;;;;;;;;;;;;;6267817;22;19947;-88
2022/09/06 06:55:52;;;;;;;;;;;;;;;;;;6265737;22;19973;-88
2022/09/06 06:58:22;;;;;;;;;;;;;;;;;;6267787;22;19950;-88
2022/09/06 07:00:48;;;;;;;;;;;;;;;;;;6239971;22;19920;-88
2022/09/06 07:03:17;;;;;;;;;;;;;;;;;;6241541;22;19919;-88
2022/09/06 07:05:44;;;;;;;;;;;;;;;;;;6236297;22;19919;-88
2022/09/06 07:08:10;;;;;;;;;;;;;;;;;;6240658;22;20008;-88
2022/09/06 07:10:36;;;;;;;;;;;;;;;;;;6262848;22;20282;-88
2022/09/06 07:13:02;;;;;;;;;;;;;;;;;;6242302;22;19919;-88
2022/09/06 07:15:28;;;;;;;;;;;;;;;;;;6264320;22;19976;-88
2022/09/06 07:17:54;;;;;;;;;;;;;;;;;;6240550;22;19946;-87
2022/09/06 07:20:20;;;;;;;;;;;;;;;;;;6241627;22;20405;-87
2022/09/06 07:22:47;;;;;;;;;;;;;;;;;;6238636;22;20898;-88
2022/09/06 07:25:15;;;;;;;;;;;;;;;;;;6263118;22;20259;-88
2022/09/06 07:27:42;;;;;;;;;;;;;;;;;;6239279;22;19915;-88
2022/09/06 07:30:08;;;;;;;;;;;;;;;;;;6241580;22;19930;-88
2022/09/06 07:32:34;;;;;;;;;;;;;;;;;;6263138;22;19915;-88
2022/09/06 07:35:00;;;;;;;;;;;;;;;;;;6240325;22;19923;-88
2022/09/06 07:37:27;;;;;;;;;;;;;;;;;;6241295;22;19970;-88
2022/09/06 07:39:56;;;;;;;;;;;;;;;;;;6240135;22;19919;-88
2022/09/06 07:42:29;;;;;;;;;;;;;;;;;;6266946;22;20320;-88
2022/09/06 07:44:56;;;;;;;;;;;;;;;;;;6268201;22;19930;-88
2022/09/06 07:47:23;;;;;;;;;;;;;;;;;;6235791;22;19927;-87
2022/09/06 07:49:52;;;;;;;;;;;;;;;;;;6237187;22;19919;-87
2022/09/06 07:52:30;;;;;;;;;;;;;;;;;;6266403;22;19939;-87
2022/09/06 07:54:56;;;;;;;;;;;;;;;;;;6241490;22;19923;-87
2022/09/06 07:57:22;;;;;;;;;;;;;;;;;;6240505;22;20348;-87
2022/09/06 07:59:48;;;;;;;;;;;;;;;;;;6237405;22;19919;-88
2022/09/06 08:02:16;;;;;;;;;;;;;;;;;;6266329;22;19954;-88
2022/09/06 08:04:45;;;;;;;;;;;;;;;;;;6264071;22;19920;-88
2022/09/06 08:07:11;;;;;;;;;;;;;;;;;;6265241;22;19923;-88
2022/09/06 08:09:37;;;;;;;;;;;;;;;;;;6238484;22;19915;-88
2022/09/06 08:12:06;;;;;;;;;;;;;;;;;;6241307;22;19922;-88
2022/09/06 08:14:32;;;;;;;;;;;;;;;;;;6237788;22;19973;-87
2022/09/06 08:16:58;;;;;;;;;;;;;;;;;;6240563;22;19923;-87
2022/09/06 08:19:27;;;;;;;;;;;;;;;;;;6239675;22;19957;-88
2022/09/06 08:21:54;;;;;;;;;;;;;;;;;;6238723;22;19942;-87
2022/09/06 08:24:20;;;;;;;;;;;;;;;;;;6241354;22;19925;-87
2022/09/06 08:26:46;;;;;;;;;;;;;;;;;;6238401;22;19926;-87
2022/09/06 08:29:12;;;;;;;;;;;;;;;;;;6240523;22;19919;-87
2022/09/06 08:31:44;;;;;;;;;;;;;;;;;;6240026;22;19962;-87
2022/09/06 08:34:16;;;;;;;;;;;;;;;;;;6264922;22;20320;-87
2022/09/06 08:36:44;;;;;;;;;;;;;;;;;;6237494;22;19916;-87
2022/09/06 08:39:10;;;;;;;;;;;;;;;;;;6265804;22;19919;-87
2022/09/06 08:41:39;;;;;;;;;;;;;;;;;;6264293;22;19926;-87
2022/09/06 08:44:08;;;;;;;;;;;;;;;;;;6267170;22;19930;-87
2022/09/06 08:46:36;;;;;;;;;;;;;;;;;;6262113;22;19923;-87
2022/09/06 08:49:03;;;;;;;;;;;;;;;;;;6264203;22;19915;-87
2022/09/06 08:51:29;;;;;;;;;;;;;;;;;;6264078;22;19925;-87
2022/09/06 08:53:55;;;;;;;;;;;;;;;;;;6239799;22;20225;-87
2022/09/06 08:56:21;;;;;;;;;;;;;;;;;;6241317;22;19998;-87
2022/09/06 08:58:51;;;;;;;;;;;;;;;;;;6237413;22;20292;-87
2022/09/06 09:01:21;;;;;;;;;;;;;;;;;;6240918;22;19986;-87
2022/09/06 09:03:47;;;;;;;;;;;;;;;;;;6263605;22;20337;-86
2022/09/06 09:06:13;;;;;;;;;;;;;;;;;;6266279;22;20232;-87
2022/09/06 09:08:39;;;;;;;;;;;;;;;;;;6240008;22;19926;-87
2022/09/06 09:11:05;;;;;;;;;;;;;;;;;;6243183;22;19938;-87
2022/09/06 09:13:31;;;;;;;;;;;;;;;;;;6239810;22;20335;-87
2022/09/06 09:15:57;;;;;;;;;;;;;;;;;;6241967;22;19920;-87
2022/09/06 09:18:23;;;;;;;;;;;;;;;;;;6241997;22;19915;-86
2022/09/06 09:20:49;;;;;;;;;;;;;;;;;;6265734;22;19915;-87
2022/09/06 09:23:15;;;;;;;;;;;;;;;;;;6248097;22;19923;-87
2022/09/06 09:25:42;;;;;;;;;;;;;;;;;;6299144;22;19926;-87
2022/09/06 09:28:08;;;;;;;;;;;;;;;;;;6273662;22;19923;-87
2022/09/06 09:30:34;;;;;;;;;;;;;;;;;;6243808;22;19915;-87
2022/09/06 09:33:00;;;;;;;;;;;;;;;;;;6271961;22;20331;-87
2022/09/06 09:35:26;;;;;;;;;;;;;;;;;;6243876;22;19972;-86
2022/09/06 09:37:52;;;;;;;;;;;;;;;;;;6249206;22;19922;-87
2022/09/06 09:40:18;;;;;;;;;;;;;;;;;;6248100;22;19919;-86
2022/09/06 09:42:46;;;;;;;;;;;;;;;;;;6245404;22;20377;-86
2022/09/06 09:45:12;;;;;;;;;;;;;;;;;;6268180;22;19979;-86
2022/09/06 09:47:43;;;;;;;;;;;;;;;;;;6298457;22;19994;-87
2022/09/06 09:50:09;;;;;;;;;;;;;;;;;;6246551;22;19925;-86
2022/09/06 09:52:35;;;;;;;;;;;;;;;;;;6245693;22;19993;-86
2022/09/06 09:55:04;;;;;;;;;;;;;;;;;;6273246;22;19922;-86
2022/09/06 09:57:30;;;;;;;;;;;;;;;;;;6244828;22;20282;-87
2022/09/06 10:00:02;;;;;;;;;;;;;;;;;;6247411;22;19923;-87
2022/09/06 10:02:29;;;;;;;;;;;;;;;;;;6269004;22;20396;-87
2022/09/06 10:04:57;;;;;;;;;;;;;;;;;;6272732;22;19923;-87
2022/09/06 10:07:23;;;;;;;;;;;;;;;;;;6247194;22;20331;-87
2022/09/06 10:09:49;;;;;;;;;;;;;;;;;;6245835;22;19922;-87
2022/09/06 10:12:16;;;;;;;;;;;;;;;;;;6247509;22;19919;-87
2022/09/06 10:14:42;;;;;;;;;;;;;;;;;;6244306;22;20282;-87
2022/09/06 10:17:08;;;;;;;;;;;;;;;;;;6247709;22;20724;-87
2022/09/06 10:19:34;;;;;;;;;;;;;;;;;;6243723;22;19918;-87
2022/09/06 10:22:00;;;;;;;;;;;;;;;;;;6247495;22;19923;-87
2022/09/06 10:24:35;;;;;;;;;;;;;;;;;;6272604;22;20316;-87
2022/09/06 10:27:01;;;;;;;;;;;;;;;;;;6247487;22;19915;-87
2022/09/06 10:29:35;;;;;;;;;;;;;;;;;;6296516;22;19968;-87
2022/09/06 10:32:05;;;;;;;;;;;;;;;;;;6271582;22;19918;-87
2022/09/06 10:34:31;;;;;;;;;;;;;;;;;;6268317;22;19923;-87
2022/09/06 10:37:03;;;;;;;;;;;;;;;;;;6247780;22;20005;-87
2022/09/06 10:39:29;;;;;;;;;;;;;;;;;;6244474;22;20387;-87
2022/09/06 10:41:55;;;;;;;;;;;;;;;;;;6272626;22;19915;-87
2022/09/06 10:44:23;;;;;;;;;;;;;;;;;;6273222;22;19919;-87
2022/09/06 10:46:53;;;;;;;;;;;;;;;;;;6271659;22;19934;-87
2022/09/06 10:49:19;;;;;;;;;;;;;;;;;;6271012;22;20332;-87
2022/09/06 10:51:48;;;;;;;;;;;;;;;;;;6270199;22;19946;-87
2022/09/06 10:54:14;;;;;;;;;;;;;;;;;;6271952;22;19926;-87
2022/09/06 10:56:40;;;;;;;;;;;;;;;;;;6269953;22;19915;-87
2022/09/06 10:59:06;;;;;;;;;;;;;;;;;;6246831;22;19926;-87
2022/09/06 11:01:32;;;;;;;;;;;;;;;;;;6244921;22;19918;-87
2022/09/06 11:04:01;;;;;;;;;;;;;;;;;;6271271;22;20306;-87
2022/09/06 11:06:27;;;;;;;;;;;;;;;;;;6269842;22;19986;-87
2022/09/06 11:08:53;;;;;;;;;;;;;;;;;;6271558;22;20374;-87
2022/09/06 11:11:19;;;;;;;;;;;;;;;;;;6245384;22;19954;-87
2022/09/06 11:13:48;;;;;;;;;;;;;;;;;;6270437;22;19918;-87
2022/09/06 11:16:14;;;;;;;;;;;;;;;;;;6272747;22;20380;-87
2022/09/06 11:18:45;;;;;;;;;;;;;;;;;;6268728;22;19926;-87
2022/09/06 11:21:14;;;;;;;;;;;;;;;;;;6271608;22;19919;-87
2022/09/06 11:23:40;;;;;;;;;;;;;;;;;;6268532;22;19954;-87
2022/09/06 11:26:06;;;;;;;;;;;;;;;;;;6272146;22;19919;-87
2022/09/06 11:28:33;;;;;;;;;;;;;;;;;;6243387;22;19993;-87
2022/09/06 11:31:02;;;;;;;;;;;;;;;;;;6246850;22;19970;-86
2022/09/06 11:33:29;;;;;;;;;;;;;;;;;;6241363;22;20025;-87
2022/09/06 11:35:55;;;;;;;;;;;;;;;;;;6244929;22;19958;-87
2022/09/06 11:38:21;;;;;;;;;;;;;;;;;;6269722;22;19915;-87
2022/09/06 11:40:50;;;;;;;;;;;;;;;;;;6219865;22;20029;-87
2022/09/06 11:43:16;;;;;;;;;;;;;;;;;;6269297;22;19962;-87
2022/09/06 11:45:43;;;;;;;;;;;;;;;;;;6268427;22;19918;-87
2022/09/06 11:48:22;;;;;;;;;;;;;;;;;;6247293;22;19919;-87
2022/09/06 11:50:48;;;;;;;;;;;;;;;;;;6294039;22;19993;-87
2022/09/06 11:53:16;;;;;;;;;;;;;;;;;;6246229;22;20385;-87
2022/09/06 11:55:42;;;;;;;;;;;;;;;;;;6243174;22;20351;-87
2022/09/06 11:58:08;;;;;;;;;;;;;;;;;;6271886;22;19915;-87
2022/09/06 12:00:34;;;;;;;;;;;;;;;;;;6295209;22;19999;-87
2022/09/06 12:03:12;;;;;;;;;;;;;;;;;;5078930;27;20405;-86
2022/09/06 12:05:43;;;;;;;;;;;;;;;;;;5065698;28;19928;-86
2022/09/06 12:08:09;;;;;;;;;;;;;;;;;;5057384;28;19920;-86
2022/09/06 12:10:35;;;;;;;;;;;;;;;;;;5053879;28;19964;-86
2022/09/06 12:13:01;;;;;;;;;;;;;;;;;;5061661;28;19930;-86
2022/09/06 12:15:27;;;;;;;;;;;;;;;;;;5056448;28;19928;-88
2022/09/06 12:17:53;;;;;;;;;;;;;;;;;;5073602;28;19951;-87
2022/09/06 12:20:19;;;;;;;;;;;;;;;;;;5062176;28;20360;-87
2022/09/06 12:22:46;;;;;;;;;;;;;;;;;;5056449;28;19933;-87
2022/09/06 12:25:12;;;;;;;;;;;;;;;;;;5056671;28;19929;-87
2022/09/06 12:27:38;;;;;;;;;;;;;;;;;;5037593;28;20264;-87
2022/09/06 12:30:04;;;;;;;;;;;;;;;;;;5051671;28;19921;-87
2022/09/06 12:32:30;;;;;;;;;;;;;;;;;;5035666;28;19927;-87
2022/09/06 12:34:57;;;;;;;;;;;;;;;;;;5053677;28;20291;-87
2022/09/06 12:37:23;;;;;;;;;;;;;;;;;;5042355;28;19931;-87
2022/09/06 12:39:50;;;;;;;;;;;;;;;;;;5057199;28;19929;-86
2022/09/06 12:42:18;;;;;;;;;;;;;;;;;;5043438;28;19924;-87
2022/09/06 12:44:44;;;;;;;;;;;;;;;;;;5055680;28;19925;-87
2022/09/06 12:47:10;;;;;;;;;;;;;;;;;;5058503;28;19948;-87
2022/09/06 12:49:36;;;;;;;;;;;;;;;;;;5034394;28;19925;-87
2022/09/06 12:52:02;;;;;;;;;;;;;;;;;;5058300;28;20066;-87
2022/09/06 12:54:29;;;;;;;;;;;;;;;;;;5053443;28;19921;-87
2022/09/06 12:56:56;;;;;;;;;;;;;;;;;;5041682;28;20294;-87
2022/09/06 12:59:23;;;;;;;;;;;;;;;;;;5047245;28;19951;-87
2022/09/06 13:01:49;;;;;;;;;;;;;;;;;;5031144;28;20298;-87
2022/09/06 13:04:17;;;;;;;;;;;;;;;;;;5053123;28;19928;-86
2022/09/06 13:06:44;;;;;;;;;;;;;;;;;;5045122;28;19940;-87
2022/09/06 13:09:11;;;;;;;;;;;;;;;;;;5047965;28;19932;-87
2022/09/06 13:11:37;;;;;;;;;;;;;;;;;;5049073;28;19931;-87
2022/09/06 13:14:03;;;;;;;;;;;;;;;;;;5051488;28;19925;-87
2022/09/06 13:16:33;;;;;;;;;;;;;;;;;;5038455;28;19982;-87
2022/09/06 13:19:02;;;;;;;;;;;;;;;;;;5040545;28;20520;-87
2022/09/06 13:21:34;;;;;;;;;;;;;;;;;;5021350;28;20375;-87
2022/09/06 13:24:02;;;;;;;;;;;;;;;;;;5027768;28;19924;-87
2022/09/06 13:26:33;;;;;;;;;;;;;;;;;;5021837;28;20011;-87
2022/09/06 13:28:59;;;;;;;;;;;;;;;;;;5044866;28;19932;-87
2022/09/06 13:31:26;;;;;;;;;;;;;;;;;;5024290;28;20359;-87
2022/09/06 13:33:52;;;;;;;;;;;;;;;;;;5028386;28;19927;-87
2022/09/06 13:36:21;;;;;;;;;;;;;;;;;;5039817;28;20348;-87
2022/09/06 13:38:47;;;;;;;;;;;;;;;;;;5041166;28;20019;-86
2022/09/06 13:41:13;;;;;;;;;;;;;;;;;;5043176;28;19925;-87
2022/09/06 13:43:39;;;;;;;;;;;;;;;;;;5039303;28;20011;-87
2022/09/06 13:46:05;;;;;;;;;;;;;;;;;;5029921;28;20357;-87
2022/09/06 13:48:33;;;;;;;;;;;;;;;;;;5038092;28;19920;-86
2022/09/06 13:50:59;;;;;;;;;;;;;;;;;;5033090;28;19931;-87
2022/09/06 13:53:26;;;;;;;;;;;;;;;;;;5019613;28;19932;-87
2022/09/06 13:55:55;;;;;;;;;;;;;;;;;;5035412;28;19974;-86
2022/09/06 13:58:21;;;;;;;;;;;;;;;;;;5039132;28;19921;-86
2022/09/06 14:00:47;;;;;;;;;;;;;;;;;;5016150;28;20010;-86
2022/09/06 14:03:13;;;;;;;;;;;;;;;;;;5034010;28;19924;-86
2022/09/06 14:05:41;;;;;;;;;;;;;;;;;;5009455;28;19928;-87
2022/09/06 14:08:07;;;;;;;;;;;;;;;;;;5022385;28;19928;-87
2022/09/06 14:10:33;;;;;;;;;;;;;;;;;;5014175;28;19996;-87
2022/09/06 14:13:04;;;;;;;;;;;;;;;;;;5021175;28;19929;-87
2022/09/06 14:15:36;;;;;;;;;;;;;;;;;;5003441;28;19929;-87
2022/09/06 14:18:02;;;;;;;;;;;;;;;;;;5030074;28;20013;-88
2022/09/06 14:20:41;;;;;;;;;;;;;;;;;;5035009;28;19968;-88
2022/09/06 14:23:07;;;;;;;;;;;;;;;;;;5010823;28;19971;-88
2022/09/06 14:25:33;;;;;;;;;;;;;;;;;;5028000;28;19925;-88
2022/09/06 14:28:01;;;;;;;;;;;;;;;;;;5022384;28;19929;-88
2022/09/06 14:30:27;;;;;;;;;;;;;;;;;;5016485;28;19928;-87
2022/09/06 15:13:21;;;;;;;;;;;;;;;;;;4909828;24;19930;-91
2022/09/06 15:16:15;;;;;;;;;;;;;;;;;;4877717;29;19927;-93
2022/09/06 15:19:01;;;;;;;;;;;;;;;;;;4906623;29;20082;-91
2022/09/06 15:24:49;;;;;;;;;;;;;;;;;;4879867;29;19930;-92
2022/09/06 15:27:32;;;;;;;;;;;;;;;;;;4865004;29;20404;-92
2022/09/06 15:30:03;;;;;;;;;;;;;;;;;;4881553;29;19931;-92
2022/09/06 15:36:09;;;;;;;;;;;;;;;;;;;;;
2022/09/06 15:38:38;;;;;;;;;;;;;;;;;;4861815;29;20659;-92
2022/09/06 15:47:40;;;;;;;;;;;;;;;;;;;;;
2022/09/06 15:50:40;;;;;;;;;;;;;;;;;;;;;
2022/09/06 15:53:33;;;;;;;;;;;;;;;;;;;;;
2022/09/06 15:59:23;;;;;;;;;;;;;;;;;;4841972;29;20310;-92
2022/09/06 16:02:13;;;;;;;;;;;;;;;;;;4808947;29;19936;-92
2022/09/06 16:08:10;;;;;;;;;;;;;;;;;;4789089;29;19936;-91
2022/09/06 16:16:56;;;;;;;;;;;;;;;;;;;;;
2022/09/06 16:35:41;;;;;;;;;;;;;;;;;;5860650;23;19924;-87
2022/09/06 16:54:17;;;;;;;;;;;;;;;;;;;;;
2022/09/06 16:57:01;;;;;;;;;;;;;;;;;;4873389;29;20441;-81
2022/09/06 17:02:24;;;;;;;;;;;;;;;;;;4891035;29;19926;-81
2022/09/06 17:04:52;;;;;;;;;;;;;;;;;;4889231;29;19926;-80
2022/09/06 17:07:24;;;;;;;;;;;;;;;;;;4878885;29;20464;-81
2022/09/06 17:09:53;;;;;;;;;;;;;;;;;;4910307;29;19974;-80
2022/09/06 17:12:26;;;;;;;;;;;;;;;;;;4878576;29;20402;-80
2022/09/06 17:14:55;;;;;;;;;;;;;;;;;;4909245;29;19986;-81
2022/09/06 17:17:21;;;;;;;;;;;;;;;;;;4883199;29;19932;-80
2022/09/06 17:19:59;;;;;;;;;;;;;;;;;;4878700;29;19938;-80
2022/09/06 17:22:28;;;;;;;;;;;;;;;;;;4908178;29;20594;-80
2022/09/06 17:24:56;;;;;;;;;;;;;;;;;;4890081;29;20381;-80
2022/09/06 17:27:22;;;;;;;;;;;;;;;;;;4886884;29;19930;-80
2022/09/06 17:29:49;;;;;;;;;;;;;;;;;;4880285;29;19930;-81
2022/09/06 17:32:15;;;;;;;;;;;;;;;;;;4875096;29;20798;-80
2022/09/06 17:34:44;;;;;;;;;;;;;;;;;;4865224;29;19982;-81
2022/09/06 17:37:13;;;;;;;;;;;;;;;;;;4876928;29;19935;-80
2022/09/06 17:39:39;;;;;;;;;;;;;;;;;;4897462;29;20511;-81
2022/09/06 17:42:05;;;;;;;;;;;;;;;;;;4866433;29;20021;-81
2022/09/06 17:44:31;;;;;;;;;;;;;;;;;;4882641;29;20436;-81
2022/09/06 17:46:57;;;;;;;;;;;;;;;;;;4882884;29;19977;-81
2022/09/06 17:49:23;;;;;;;;;;;;;;;;;;4883371;29;20397;-81
2022/09/06 17:51:49;;;;;;;;;;;;;;;;;;4876466;29;19973;-82
2022/09/06 17:54:15;;;;;;;;;;;;;;;;;;4880733;29;19946;-83
2022/09/06 17:56:41;;;;;;;;;;;;;;;;;;4864209;29;19926;-83
2022/09/06 17:59:07;;;;;;;;;;;;;;;;;;4864668;29;19934;-84
2022/09/06 18:01:37;;;;;;;;;;;;;;;;;;4861053;29;20393;-84
2022/09/06 18:04:03;;;;;;;;;;;;;;;;;;4896441;29;19987;-84
2022/09/06 18:06:29;;;;;;;;;;;;;;;;;;4853059;29;19985;-83
2022/09/06 18:08:55;;;;;;;;;;;;;;;;;;4886191;29;19990;-83
2022/09/06 18:11:21;;;;;;;;;;;;;;;;;;4883472;29;19926;-83
2022/09/06 18:13:47;;;;;;;;;;;;;;;;;;4881382;29;20539;-83
2022/09/06 18:16:13;;;;;;;;;;;;;;;;;;4872786;29;19926;-83
2022/09/06 18:18:39;;;;;;;;;;;;;;;;;;4874521;29;20495;-83
2022/09/06 18:21:08;;;;;;;;;;;;;;;;;;4896733;29;19931;-83
2022/09/06 18:23:34;;;;;;;;;;;;;;;;;;4860373;29;20992;-83
2022/09/06 18:26:00;;;;;;;;;;;;;;;;;;4883740;29;19931;-83
2022/09/06 18:28:26;;;;;;;;;;;;;;;;;;4865413;29;19929;-85
2022/09/06 18:30:52;;;;;;;;;;;;;;;;;;4878102;29;19937;-83
2022/09/06 18:33:18;;;;;;;;;;;;;;;;;;4861726;29;19931;-83
2022/09/06 18:35:44;;;;;;;;;;;;;;;;;;4854751;29;19969;-84
2022/09/06 18:38:11;;;;;;;;;;;;;;;;;;4869088;29;20397;-83
2022/09/06 18:40:37;;;;;;;;;;;;;;;;;;4869396;29;19930;-83
2022/09/06 18:43:03;;;;;;;;;;;;;;;;;;4877404;29;20330;-83
2022/09/06 18:45:29;;;;;;;;;;;;;;;;;;4860969;29;20014;-81
2022/09/06 18:47:55;;;;;;;;;;;;;;;;;;4862646;29;20490;-84
2022/09/06 18:50:21;;;;;;;;;;;;;;;;;;4878127;29;19930;-83
2022/09/06 18:52:47;;;;;;;;;;;;;;;;;;4864288;29;20797;-83
2022/09/06 18:55:13;;;;;;;;;;;;;;;;;;4880070;29;19938;-84
2022/09/06 18:57:39;;;;;;;;;;;;;;;;;;4897649;29;20453;-84
2022/09/06 19:00:06;;;;;;;;;;;;;;;;;;4883122;29;20301;-83
2022/09/06 19:02:32;;;;;;;;;;;;;;;;;;4862258;29;19967;-83
2022/09/06 19:04:58;;;;;;;;;;;;;;;;;;4875876;29;20015;-83
2022/09/06 19:07:24;;;;;;;;;;;;;;;;;;4897149;29;20281;-83
2022/09/06 19:09:50;;;;;;;;;;;;;;;;;;4873542;29;19930;-83
2022/09/06 19:12:16;;;;;;;;;;;;;;;;;;4877150;29;20259;-83
2022/09/06 19:14:42;;;;;;;;;;;;;;;;;;4864523;29;19931;-84